Time;durP1;ratioP1;P1;durP2;ratioP2;P2;SDS_P1;SDS_P2;PMS_P1;PMS_P2;Temp;Humidity;BMP_temperature;BMP_pressure;BME280_temperature;BME280_humidity;BME280_pressure;Samples;Min_cycle;Max_cycle;Signal;HPM_P1;HPM_P2
2021/10/16 00:01:52;;;;;;;7.30;1.80;;;7.70;99.90;;;;;;5050455;28;20104;-53
2021/10/16 00:04:18;;;;;;;6.03;2.63;;;7.70;99.90;;;;;;5050150;28;20685;-52
2021/10/16 00:06:43;;;;;;;5.88;1.70;;;7.70;99.90;;;;;;5050508;28;20040;-53
2021/10/16 00:09:09;;;;;;;5.00;1.48;;;7.70;99.90;;;;;;5050827;28;20047;-52
2021/10/16 00:11:34;;;;;;;5.78;1.42;;;7.70;99.90;;;;;;5082466;22;20052;-54
2021/10/16 00:14:00;;;;;;;4.10;1.63;;;7.70;99.90;;;;;;5070713;28;20434;-49
2021/10/16 00:16:25;;;;;;;5.07;1.77;;;7.70;99.90;;;;;;5067590;28;20052;-52
2021/10/16 00:18:52;;;;;;;10.32;1.65;;;7.70;99.90;;;;;;5072764;28;20104;-53
2021/10/16 00:21:18;;;;;;;6.80;1.80;;;7.70;99.90;;;;;;5066612;28;20508;-50
2021/10/16 00:23:43;;;;;;;12.95;2.83;;;7.70;99.90;;;;;;5070497;28;20028;-55
2021/10/16 00:26:09;;;;;;;5.28;1.30;;;7.80;99.90;;;;;;5069599;28;20081;-50
2021/10/16 00:28:35;;;;;;;5.80;1.38;;;7.80;99.90;;;;;;5070856;28;20111;-51
2021/10/16 00:31:00;;;;;;;7.20;2.13;;;7.80;99.90;;;;;;5068308;28;20059;-50
2021/10/16 00:33:26;;;;;;;4.30;1.33;;;7.80;99.90;;;;;;5070168;28;20406;-51
2021/10/16 00:35:51;;;;;;;7.53;1.90;;;7.80;99.90;;;;;;5069811;28;20542;-49
2021/10/16 00:38:17;;;;;;;9.77;2.33;;;7.80;99.90;;;;;;5069680;28;20028;-52
2021/10/16 00:40:42;;;;;;;6.43;1.30;;;7.90;99.90;;;;;;5069812;28;20447;-49
2021/10/16 00:43:08;;;;;;;5.93;2.00;;;7.90;99.90;;;;;;5069128;28;20484;-53
2021/10/16 00:45:34;;;;;;;11.55;1.98;;;7.90;99.90;;;;;;5069540;28;20043;-51
2021/10/16 00:48:00;;;;;;;5.70;1.42;;;7.90;99.90;;;;;;5069849;28;20024;-51
2021/10/16 00:50:25;;;;;;;5.88;1.48;;;7.90;99.90;;;;;;5069819;28;20029;-51
2021/10/16 00:52:52;;;;;;;5.03;1.48;;;8.00;99.90;;;;;;5069847;28;20060;-52
2021/10/16 00:55:19;;;;;;;5.50;2.03;;;8.00;99.90;;;;;;5069708;28;20500;-49
2021/10/16 00:57:46;;;;;;;7.50;1.70;;;8.00;99.90;;;;;;5068914;28;20039;-54
2021/10/16 01:00:13;;;;;;;6.50;1.80;;;8.00;99.90;;;;;;5066966;28;20086;-55
2021/10/16 01:02:39;;;;;;;3.30;1.42;;;8.00;99.90;;;;;;5067224;28;20092;-54
2021/10/16 01:05:06;;;;;;;10.75;2.42;;;8.00;99.90;;;;;;5067712;28;20412;-52
2021/10/16 01:07:32;;;;;;;10.18;2.00;;;8.00;99.90;;;;;;5068966;28;20040;-55
2021/10/16 01:09:58;;;;;;;6.00;1.92;;;8.00;99.90;;;;;;5065204;28;20021;-52
2021/10/16 01:12:23;;;;;;;8.13;2.30;;;8.00;99.90;;;;;;5052259;28;20052;-50
2021/10/16 01:14:57;;;;;;;11.35;2.22;;;8.00;99.90;;;;;;5068903;28;20042;-53
2021/10/16 01:17:23;;;;;;;6.10;1.30;;;8.10;99.90;;;;;;5069602;28;20478;-55
2021/10/16 01:19:56;;;;;;;4.97;1.38;;;8.10;99.90;;;;;;5069011;28;20023;-52
2021/10/16 01:22:23;;;;;;;6.25;1.40;;;8.10;99.90;;;;;;5068300;28;20028;-50
2021/10/16 01:24:51;;;;;;;4.53;1.92;;;8.00;99.90;;;;;;5068164;28;20081;-54
2021/10/16 01:27:18;;;;;;;6.95;2.22;;;8.00;99.90;;;;;;5072397;28;20050;-56
2021/10/16 01:29:44;;;;;;;7.57;1.70;;;8.00;99.90;;;;;;5069422;28;20412;-52
2021/10/16 01:32:10;;;;;;;5.38;1.80;;;8.00;99.90;;;;;;5068542;28;20512;-52
2021/10/16 01:34:35;;;;;;;7.57;1.50;;;7.90;99.90;;;;;;5068652;28;20058;-52
2021/10/16 01:37:01;;;;;;;5.43;1.30;;;7.90;99.90;;;;;;5069256;28;20073;-53
2021/10/16 01:39:29;;;;;;;9.73;1.58;;;7.80;99.90;;;;;;5069221;28;20039;-52
2021/10/16 01:41:56;;;;;;;6.47;1.98;;;7.80;99.90;;;;;;5065136;28;20029;-54
2021/10/16 01:44:21;;;;;;;5.63;2.03;;;7.80;99.90;;;;;;5068394;28;20396;-55
2021/10/16 01:46:47;;;;;;;6.03;1.60;;;7.70;99.90;;;;;;5064676;28;20029;-54
2021/10/16 01:49:16;;;;;;;5.93;1.52;;;7.70;99.90;;;;;;5062196;28;20033;-51
2021/10/16 01:51:44;;;;;;;9.25;2.00;;;7.70;99.90;;;;;;5065576;28;20028;-50
2021/10/16 01:54:10;;;;;;;7.10;2.28;;;7.70;99.90;;;;;;5068457;28;20158;-56
2021/10/16 01:56:36;;;;;;;4.90;1.38;;;7.60;99.90;;;;;;5068847;28;20398;-54
2021/10/16 01:59:14;;;;;;;6.47;1.38;;;7.60;99.90;;;;;;5068568;28;20040;-53
2021/10/16 02:01:39;;;;;;;5.65;1.67;;;7.60;99.90;;;;;;5068225;28;20025;-52
2021/10/16 02:04:05;;;;;;;6.65;1.73;;;7.60;99.90;;;;;;5068767;28;20036;-53
2021/10/16 02:06:30;;;;;;;1.70;0.93;;;7.60;99.90;;;;;;5068810;28;20031;-55
2021/10/16 02:08:56;;;;;;;7.97;1.40;;;7.60;99.90;;;;;;5067648;28;20066;-54
2021/10/16 02:11:22;;;;;;;10.50;2.35;;;7.50;99.90;;;;;;5068018;28;20064;-56
2021/10/16 02:13:47;;;;;;;7.30;1.70;;;7.50;99.90;;;;;;5068527;28;20020;-54
2021/10/16 02:16:13;;;;;;;7.40;1.60;;;7.60;99.90;;;;;;5068633;28;20024;-54
2021/10/16 02:18:39;;;;;;;9.15;1.92;;;7.60;99.90;;;;;;5067383;28;20025;-52
2021/10/16 02:21:05;;;;;;;5.00;1.77;;;7.60;99.90;;;;;;5067573;28;20048;-51
2021/10/16 02:23:30;;;;;;;8.73;2.05;;;7.60;99.90;;;;;;5066297;28;20024;-52
2021/10/16 02:25:56;;;;;;;4.43;1.85;;;7.60;99.90;;;;;;5067674;28;20488;-52
2021/10/16 02:28:21;;;;;;;5.65;1.50;;;7.60;99.90;;;;;;5066515;28;20027;-54
2021/10/16 02:30:47;;;;;;;5.15;1.73;;;7.60;99.90;;;;;;5068117;28;20112;-52
2021/10/16 02:33:12;;;;;;;4.03;1.63;;;7.70;99.90;;;;;;5067054;28;20051;-51
2021/10/16 02:35:38;;;;;;;7.75;1.65;;;7.60;99.90;;;;;;5068412;28;20043;-55
2021/10/16 02:38:04;;;;;;;3.38;1.30;;;7.60;99.90;;;;;;5067629;28;20477;-54
2021/10/16 02:40:31;;;;;;;5.13;1.35;;;7.60;99.90;;;;;;5071234;28;20031;-51
2021/10/16 02:42:56;;;;;;;4.20;1.77;;;7.60;99.90;;;;;;5068190;28;20043;-49
2021/10/16 02:45:22;;;;;;;3.22;1.70;;;7.50;99.90;;;;;;5068076;28;20516;-54
2021/10/16 02:47:48;;;;;;;5.95;1.92;;;7.50;99.90;;;;;;5066769;28;20032;-55
2021/10/16 02:50:14;;;;;;;4.80;1.90;;;7.50;99.90;;;;;;5067743;28;20070;-53
2021/10/16 02:52:39;;;;;;;2.15;1.40;;;7.50;99.90;;;;;;5067538;28;20028;-52
2021/10/16 02:55:05;;;;;;;8.32;2.35;;;7.50;99.90;;;;;;5066674;28;20774;-52
2021/10/16 02:57:32;;;;;;;4.75;1.75;;;7.40;99.90;;;;;;5067812;28;20607;-54
2021/10/16 02:59:58;;;;;;;6.30;2.28;;;7.40;99.90;;;;;;5066435;28;20021;-53
2021/10/16 03:02:23;;;;;;;8.00;2.22;;;7.40;99.90;;;;;;5048799;28;20029;-49
2021/10/16 03:04:49;;;;;;;4.28;1.70;;;7.40;99.90;;;;;;5057831;28;20046;-52
2021/10/16 03:07:16;;;;;;;7.80;2.13;;;7.40;99.90;;;;;;5067374;28;20404;-53
2021/10/16 03:09:41;;;;;;;4.63;1.75;;;7.30;99.90;;;;;;5067434;28;20024;-53
2021/10/16 03:12:07;;;;;;;6.38;2.15;;;7.30;99.90;;;;;;5065792;28;20032;-50
2021/10/16 03:14:33;;;;;;;5.75;1.90;;;7.30;99.90;;;;;;5066518;28;20028;-54
2021/10/16 03:16:58;;;;;;;2.83;1.30;;;7.30;99.90;;;;;;5067019;28;20570;-49
2021/10/16 03:19:24;;;;;;;2.95;2.08;;;7.20;99.90;;;;;;5045813;28;20071;-50
2021/10/16 03:21:49;;;;;;;3.88;1.90;;;7.20;99.90;;;;;;5054985;28;20111;-56
2021/10/16 03:24:15;;;;;;;4.32;1.92;;;7.20;99.90;;;;;;5066790;28;20103;-51
2021/10/16 03:26:40;;;;;;;4.75;2.40;;;7.10;99.90;;;;;;5066923;28;20047;-52
2021/10/16 03:29:06;;;;;;;8.15;2.40;;;7.10;99.90;;;;;;5066882;28;20028;-49
2021/10/16 03:31:32;;;;;;;4.80;2.13;;;7.10;99.90;;;;;;5067492;28;20646;-54
2021/10/16 03:33:57;;;;;;;3.65;1.63;;;7.00;99.90;;;;;;5066828;28;20028;-53
2021/10/16 03:36:23;;;;;;;7.03;2.08;;;7.00;99.90;;;;;;5067343;28;20051;-50
2021/10/16 03:38:48;;;;;;;3.08;1.55;;;7.00;99.90;;;;;;5067860;28;20519;-49
2021/10/16 03:41:14;;;;;;;5.32;1.88;;;7.00;99.90;;;;;;5067324;28;20029;-51
2021/10/16 03:43:39;;;;;;;5.88;2.22;;;7.00;99.90;;;;;;5067682;28;20493;-49
2021/10/16 03:46:05;;;;;;;3.42;2.15;;;7.00;99.90;;;;;;5067535;28;20033;-53
2021/10/16 03:48:30;;;;;;;5.65;2.25;;;7.00;99.90;;;;;;5066632;28;20408;-54
2021/10/16 03:50:56;;;;;;;4.50;2.35;;;6.90;99.90;;;;;;5066818;28;20068;-49
2021/10/16 03:53:21;;;;;;;6.80;2.35;;;6.90;99.90;;;;;;5067639;28;20625;-49
2021/10/16 03:55:47;;;;;;;5.93;2.50;;;6.90;99.90;;;;;;5067805;28;20067;-51
2021/10/16 03:58:13;;;;;;;6.60;2.47;;;6.90;99.90;;;;;;5067574;28;20050;-48
2021/10/16 04:00:39;;;;;;;5.65;2.40;;;7.00;99.90;;;;;;5066202;28;20025;-51
2021/10/16 04:03:05;;;;;;;5.85;2.90;;;6.90;99.90;;;;;;5067200;28;20020;-53
2021/10/16 04:05:33;;;;;;;7.72;2.90;;;6.90;99.90;;;;;;5067235;28;20063;-52
2021/10/16 04:07:58;;;;;;;6.60;3.10;;;6.90;99.90;;;;;;5067529;28;20534;-51
2021/10/16 04:10:24;;;;;;;6.50;2.92;;;6.90;99.90;;;;;;5067059;28;20024;-50
2021/10/16 04:12:50;;;;;;;6.70;2.33;;;6.90;99.90;;;;;;5066422;28;20033;-53
2021/10/16 04:15:15;;;;;;;6.05;2.33;;;6.90;99.90;;;;;;5067171;28;20028;-50
2021/10/16 04:17:44;;;;;;;7.20;2.88;;;6.80;99.90;;;;;;5067359;28;20565;-53
2021/10/16 04:20:11;;;;;;;4.07;2.40;;;6.80;99.90;;;;;;5068378;28;20168;-49
2021/10/16 04:22:36;;;;;;;7.15;2.88;;;6.80;99.90;;;;;;5070101;28;20024;-54
2021/10/16 04:25:02;;;;;;;6.95;2.50;;;6.70;99.90;;;;;;5060672;28;20519;-54
2021/10/16 04:27:28;;;;;;;4.45;2.40;;;6.80;99.90;;;;;;5071129;28;20025;-50
2021/10/16 04:29:53;;;;;;;4.60;2.30;;;6.70;99.90;;;;;;5070482;28;20032;-54
2021/10/16 04:32:19;;;;;;;3.55;2.03;;;6.70;99.90;;;;;;5070316;28;20063;-49
2021/10/16 04:34:45;;;;;;;6.60;2.72;;;6.70;99.90;;;;;;5070575;28;20029;-50
2021/10/16 04:37:12;;;;;;;3.90;2.55;;;6.60;99.90;;;;;;5069643;28;20029;-50
2021/10/16 04:39:37;;;;;;;9.30;2.85;;;6.60;99.90;;;;;;5070989;28;20046;-51
2021/10/16 04:42:05;;;;;;;6.10;2.67;;;6.60;99.90;;;;;;5072110;28;20043;-51
2021/10/16 04:44:31;;;;;;;3.50;2.65;;;6.60;99.90;;;;;;5069490;28;20043;-50
2021/10/16 04:46:56;;;;;;;4.55;2.47;;;6.50;99.90;;;;;;5070632;28;20033;-51
2021/10/16 04:49:22;;;;;;;5.97;2.28;;;6.50;99.90;;;;;;5070054;28;20032;-49
2021/10/16 04:51:48;;;;;;;8.40;2.92;;;6.50;99.90;;;;;;5068671;28;20020;-51
2021/10/16 04:54:13;;;;;;;5.03;1.95;;;6.50;99.90;;;;;;5069627;28;20544;-51
2021/10/16 04:56:39;;;;;;;5.65;2.97;;;6.40;99.90;;;;;;5068964;28;20033;-51
2021/10/16 04:59:04;;;;;;;7.60;2.58;;;6.50;99.90;;;;;;5068417;28;20079;-48
2021/10/16 05:01:30;;;;;;;6.93;2.38;;;6.40;99.90;;;;;;5068340;28;20102;-53
2021/10/16 05:03:55;;;;;;;4.63;2.22;;;6.40;99.90;;;;;;5069520;28;20021;-50
2021/10/16 05:06:21;;;;;;;5.88;2.25;;;6.40;99.90;;;;;;5070059;28;20036;-49
2021/10/16 05:08:47;;;;;;;4.30;2.63;;;6.30;99.90;;;;;;5069746;28;20036;-51
2021/10/16 05:11:12;;;;;;;5.32;2.53;;;6.30;99.90;;;;;;5069209;28;20028;-53
2021/10/16 05:13:38;;;;;;;3.25;2.10;;;6.30;99.90;;;;;;5069453;28;20039;-49
2021/10/16 05:16:04;;;;;;;4.28;2.17;;;6.30;99.90;;;;;;5069257;28;20107;-52
2021/10/16 05:18:31;;;;;;;5.97;3.35;;;6.20;99.90;;;;;;5068722;28;20064;-51
2021/10/16 05:20:57;;;;;;;4.93;2.55;;;6.20;99.90;;;;;;5069011;28;20027;-55
2021/10/16 05:23:22;;;;;;;2.50;2.10;;;6.20;99.90;;;;;;5069024;28;20021;-51
2021/10/16 05:25:48;;;;;;;4.82;2.55;;;6.20;99.90;;;;;;5069523;28;20040;-55
2021/10/16 05:28:14;;;;;;;5.15;2.38;;;6.10;99.90;;;;;;5068636;28;20412;-54
2021/10/16 05:30:40;;;;;;;5.90;2.55;;;6.10;99.90;;;;;;5068442;28;20042;-51
2021/10/16 05:33:05;;;;;;;3.28;2.00;;;6.10;99.90;;;;;;5069074;28;20047;-49
2021/10/16 05:35:31;;;;;;;4.80;2.20;;;6.10;99.90;;;;;;5069311;28;20524;-51
2021/10/16 05:37:56;;;;;;;4.03;1.95;;;6.10;99.90;;;;;;5069000;28;20435;-53
2021/10/16 05:40:22;;;;;;;7.90;3.40;;;6.00;99.90;;;;;;5076132;28;20016;-54
2021/10/16 05:42:48;;;;;;;4.68;2.80;;;6.00;99.90;;;;;;5077060;28;20051;-54
2021/10/16 05:45:13;;;;;;;3.75;2.13;;;5.90;99.90;;;;;;5069002;28;20559;-50
2021/10/16 05:47:41;;;;;;;4.88;1.83;;;5.90;99.90;;;;;;5068423;28;20086;-48
2021/10/16 05:50:08;;;;;;;3.03;2.22;;;5.90;99.90;;;;;;5068743;28;20387;-52
2021/10/16 05:52:35;;;;;;;4.13;2.35;;;5.80;99.90;;;;;;5067594;28;20035;-50
2021/10/16 05:55:00;;;;;;;6.32;2.80;;;5.80;99.90;;;;;;5068809;28;20024;-52
2021/10/16 05:57:26;;;;;;;4.00;2.22;;;5.80;99.90;;;;;;5068308;28;20430;-51
2021/10/16 05:59:51;;;;;;;4.78;1.92;;;5.80;99.90;;;;;;5067865;28;20070;-50
2021/10/16 06:02:17;;;;;;;5.20;2.45;;;5.80;99.90;;;;;;5068470;28;20021;-51
2021/10/16 06:04:42;;;;;;;4.30;2.15;;;5.80;99.90;;;;;;5068984;28;20036;-49
2021/10/16 06:07:08;;;;;;;2.33;1.70;;;5.80;99.90;;;;;;5068499;28;20392;-53
2021/10/16 06:09:34;;;;;;;3.90;2.17;;;5.80;99.90;;;;;;5068318;28;20033;-51
2021/10/16 06:11:59;;;;;;;4.47;1.88;;;5.80;99.90;;;;;;5080042;23;20101;-52
2021/10/16 06:14:25;;;;;;;3.67;2.05;;;5.80;99.90;;;;;;5046907;28;20032;-52
2021/10/16 06:16:51;;;;;;;4.65;2.05;;;5.80;99.90;;;;;;5048537;28;20021;-53
2021/10/16 06:19:16;;;;;;;5.90;2.83;;;5.80;99.90;;;;;;5049728;28;20040;-53
2021/10/16 06:21:42;;;;;;;7.38;3.13;;;5.80;99.90;;;;;;5045102;28;20065;-50
2021/10/16 06:24:07;;;;;;;5.32;2.45;;;5.80;99.90;;;;;;5048354;28;20066;-52
2021/10/16 06:26:33;;;;;;;4.63;1.98;;;5.90;99.90;;;;;;5048368;28;20033;-52
2021/10/16 06:28:59;;;;;;;4.72;2.17;;;5.90;99.90;;;;;;5047381;28;20036;-51
2021/10/16 06:31:24;;;;;;;4.13;2.05;;;6.00;99.90;;;;;;5047348;28;20033;-51
2021/10/16 06:33:50;;;;;;;4.88;2.22;;;6.00;99.90;;;;;;5047756;28;20492;-51
2021/10/16 06:36:16;;;;;;;2.38;1.73;;;6.00;99.90;;;;;;5047539;28;20052;-51
2021/10/16 06:38:41;;;;;;;2.75;1.98;;;6.00;99.90;;;;;;5046740;28;20029;-51
2021/10/16 06:41:07;;;;;;;2.72;2.00;;;6.10;99.90;;;;;;5051675;28;20075;-52
2021/10/16 06:43:32;;;;;;;5.00;1.90;;;6.10;99.90;;;;;;5046935;28;20096;-51
2021/10/16 06:45:58;;;;;;;7.00;2.40;;;6.20;99.90;;;;;;5048123;28;20033;-51
2021/10/16 06:48:23;;;;;;;6.38;2.08;;;6.20;99.90;;;;;;5047644;28;20029;-53
2021/10/16 06:50:49;;;;;;;8.02;2.90;;;6.30;99.90;;;;;;5047343;28;20028;-51
2021/10/16 06:53:15;;;;;;;6.68;2.65;;;6.40;99.90;;;;;;5047382;28;20075;-52
2021/10/16 06:55:40;;;;;;;4.78;2.53;;;6.50;99.90;;;;;;5047540;28;20029;-54
2021/10/16 06:58:06;;;;;;;8.48;2.85;;;6.60;99.90;;;;;;5047621;28;20021;-51
2021/10/16 07:00:31;;;;;;;9.82;2.75;;;6.60;99.90;;;;;;5046312;28;20721;-51
2021/10/16 07:02:57;;;;;;;4.93;2.88;;;6.70;99.90;;;;;;5032632;28;20032;-53
2021/10/16 07:05:23;;;;;;;5.90;2.45;;;6.80;99.90;;;;;;5033527;28;20618;-52
2021/10/16 07:07:48;;;;;;;5.55;2.72;;;6.80;99.90;;;;;;5045671;28;20060;-51
2021/10/16 07:10:14;;;;;;;4.22;2.22;;;6.90;99.90;;;;;;5045790;28;20500;-52
2021/10/16 07:12:40;;;;;;;4.00;2.38;;;7.00;99.90;;;;;;5045334;28;20028;-54
2021/10/16 07:15:06;;;;;;;5.45;1.90;;;7.00;99.90;;;;;;5043655;28;20489;-53
2021/10/16 07:17:32;;;;;;;6.63;2.75;;;7.00;99.90;;;;;;5038100;28;20040;-52
2021/10/16 07:19:58;;;;;;;8.57;2.60;;;7.00;99.90;;;;;;5047192;28;20017;-52
2021/10/16 07:22:23;;;;;;;4.57;2.20;;;7.10;99.90;;;;;;5047721;28;20132;-54
2021/10/16 07:24:49;;;;;;;8.90;2.58;;;7.10;99.90;;;;;;5047645;28;20147;-51
2021/10/16 07:27:16;;;;;;;7.43;2.47;;;7.20;99.90;;;;;;5047718;28;20049;-52
2021/10/16 07:29:42;;;;;;;4.63;2.88;;;7.30;99.90;;;;;;5047219;28;20540;-53
2021/10/16 07:32:07;;;;;;;7.65;2.53;;;7.30;99.90;;;;;;5047309;28;20112;-54
2021/10/16 07:34:33;;;;;;;5.93;2.40;;;7.40;99.90;;;;;;5047539;28;20029;-52
2021/10/16 07:36:59;;;;;;;2.70;2.25;;;7.50;99.90;;;;;;5047017;28;20102;-52
2021/10/16 07:39:24;;;;;;;9.00;2.72;;;7.60;99.90;;;;;;5045902;28;20115;-52
2021/10/16 07:41:50;;;;;;;6.57;2.85;;;7.60;99.90;;;;;;5047567;28;20032;-54
2021/10/16 07:44:17;;;;;;;6.43;2.47;;;7.70;99.90;;;;;;5046661;28;20029;-53
2021/10/16 07:46:43;;;;;;;7.05;2.88;;;7.80;99.90;;;;;;5047538;28;20024;-53
2021/10/16 07:49:10;;;;;;;3.70;2.38;;;7.90;99.90;;;;;;5046293;28;20063;-51
2021/10/16 07:51:36;;;;;;;4.47;2.13;;;7.90;99.90;;;;;;5045621;28;20055;-52
2021/10/16 07:54:02;;;;;;;11.70;3.58;;;7.90;99.90;;;;;;5048956;28;20024;-52
2021/10/16 07:56:28;;;;;;;8.02;2.90;;;8.00;99.90;;;;;;5050986;28;20083;-53
2021/10/16 07:58:53;;;;;;;8.95;2.72;;;8.10;99.90;;;;;;5050895;28;20025;-50
2021/10/16 08:01:19;;;;;;;6.95;2.28;;;8.10;99.90;;;;;;5045974;28;20254;-54
2021/10/16 08:03:45;;;;;;;6.40;2.60;;;8.10;99.90;;;;;;5050693;28;20607;-52
2021/10/16 08:06:10;;;;;;;5.70;2.10;;;8.10;99.90;;;;;;5050048;28;20036;-52
2021/10/16 08:08:36;;;;;;;6.78;2.30;;;8.10;99.90;;;;;;5049961;28;20638;-53
2021/10/16 08:11:01;;;;;;;7.20;2.03;;;8.20;99.90;;;;;;5048778;28;20025;-52
2021/10/16 08:13:29;;;;;;;4.50;1.75;;;8.20;99.90;;;;;;5049554;28;20032;-49
2021/10/16 08:15:55;;;;;;;5.20;1.70;;;8.20;99.90;;;;;;5048550;28;20024;-51
2021/10/16 08:18:21;;;;;;;6.32;1.90;;;8.20;99.90;;;;;;5049640;28;20032;-52
2021/10/16 08:20:47;;;;;;;3.85;2.10;;;8.30;99.90;;;;;;5050068;28;20044;-53
2021/10/16 08:23:12;;;;;;;5.43;1.83;;;8.50;99.90;;;;;;5050274;28;20025;-50
2021/10/16 08:25:38;;;;;;;7.28;2.22;;;8.70;99.90;;;;;;5050556;28;20032;-52
2021/10/16 08:28:12;;;;;;;5.60;1.88;;;8.90;99.90;;;;;;5050819;28;20033;-51
2021/10/16 08:30:39;;;;;;;5.38;2.40;;;9.20;99.90;;;;;;5030452;28;20119;-51
2021/10/16 08:33:05;;;;;;;7.68;2.55;;;9.50;99.90;;;;;;5039644;28;20068;-49
2021/10/16 08:35:31;;;;;;;4.03;1.65;;;9.70;99.90;;;;;;5048572;28;20057;-49
2021/10/16 08:37:56;;;;;;;8.13;1.88;;;9.80;99.90;;;;;;5049634;28;20025;-49
2021/10/16 08:40:24;;;;;;;4.30;1.38;;;9.90;99.90;;;;;;5050461;28;20097;-50
2021/10/16 08:42:50;;;;;;;3.78;1.73;;;9.80;99.90;;;;;;5048797;28;20156;-50
2021/10/16 08:45:15;;;;;;;4.85;1.83;;;9.90;99.90;;;;;;5049863;28;20475;-51
2021/10/16 08:47:42;;;;;;;3.83;1.40;;;9.90;99.90;;;;;;5049253;28;20040;-49
2021/10/16 08:50:09;;;;;;;3.88;1.45;;;9.90;99.90;;;;;;5049497;28;20032;-51
2021/10/16 08:52:36;;;;;;;2.50;1.75;;;9.90;99.90;;;;;;5049474;28;20029;-51
2021/10/16 08:55:01;;;;;;;5.90;1.40;;;9.90;99.90;;;;;;5050114;28;20035;-50
2021/10/16 08:57:34;;;;;;;6.40;1.75;;;10.00;99.90;;;;;;5049313;28;20017;-51
2021/10/16 09:00:38;;;;;;;5.85;1.48;;;10.00;99.90;;;;;;5049774;28;20029;-51
2021/10/16 09:03:25;;;;;;;7.75;3.55;;;10.10;99.90;;;;;;5048939;28;20407;-52
2021/10/16 09:05:57;;;;;;;;;;;10.20;99.90;;;;;;5048929;28;20048;-52
2021/10/16 09:08:38;;;;;;;5.28;1.75;;;10.20;99.90;;;;;;5050281;28;19915;-52
2021/10/16 09:11:21;;;;;;;5.85;1.83;;;10.30;99.90;;;;;;5048551;28;20044;-50
2021/10/16 09:13:55;;;;;;;2.60;1.23;;;10.30;99.90;;;;;;5048166;28;20060;-50
2021/10/16 09:16:36;;;;;;;3.03;1.13;;;10.40;99.90;;;;;;5048770;28;20014;-53
2021/10/16 09:19:23;;;;;;;1.65;1.27;;;10.40;99.90;;;;;;5048273;28;20102;-52
2021/10/16 09:21:54;;;;;;;;;;;10.40;99.90;;;;;;5049538;28;20033;-53
2021/10/16 09:24:27;;;;;;;4.60;1.77;;;10.40;99.90;;;;;;5048611;28;20379;-51
2021/10/16 09:26:57;;;;;;;4.75;1.48;;;10.40;99.90;;;;;;5049401;28;20036;-53
2021/10/16 09:29:24;;;;;;;5.95;2.42;;;10.40;99.90;;;;;;5047597;28;20108;-55
2021/10/16 09:31:58;;;;;;;5.43;1.70;;;10.40;99.90;;;;;;5048445;28;20025;-51
2021/10/16 09:34:26;;;;;;;5.60;1.48;;;10.50;99.90;;;;;;5029327;28;20678;-53
2021/10/16 09:36:59;;;;;;;4.15;1.75;;;10.60;99.90;;;;;;5041878;28;20104;-50
2021/10/16 09:39:25;;;;;;;6.40;1.60;;;10.70;99.90;;;;;;5048997;28;20027;-51
2021/10/16 09:41:50;;;;;;;5.95;1.80;;;10.70;99.90;;;;;;5048254;28;20020;-52
2021/10/16 09:44:25;;;;;;;7.88;1.50;;;10.70;99.90;;;;;;5047766;28;20052;-52
2021/10/16 09:47:02;;;;;;;5.57;1.55;;;10.70;99.90;;;;;;5048542;28;20028;-53
2021/10/16 09:49:33;;;;;;;5.22;1.90;;;10.80;99.90;;;;;;5048135;28;20021;-51
2021/10/16 09:51:59;;;;;;;2.70;1.10;;;10.80;99.90;;;;;;5043325;28;20040;-52
2021/10/16 09:54:25;;;;;;;2.42;1.40;;;10.90;99.90;;;;;;5047708;28;20029;-51
2021/10/16 09:56:51;;;;;;;3.28;1.40;;;10.90;99.90;;;;;;5048463;28;20159;-54
2021/10/16 09:59:19;;;;;;;4.28;1.20;;;11.00;99.90;;;;;;5048465;28;20514;-52
2021/10/16 10:01:46;;;;;;;3.55;1.23;;;11.10;99.90;;;;;;5048703;28;20108;-52
2021/10/16 10:04:15;;;;;;;2.70;1.20;;;11.20;99.90;;;;;;5048643;28;20021;-51
2021/10/16 10:06:41;;;;;;;3.55;1.63;;;11.20;99.90;;;;;;5048578;28;20439;-51
2021/10/16 10:09:06;;;;;;;4.20;1.33;;;11.20;99.90;;;;;;5048011;28;20059;-51
2021/10/16 10:11:35;;;;;;;4.18;1.13;;;11.20;99.90;;;;;;5048112;28;20029;-50
2021/10/16 10:14:02;;;;;;;1.65;1.08;;;11.20;99.90;;;;;;5047514;28;20377;-52
2021/10/16 10:16:30;;;;;;;3.63;1.42;;;11.10;99.90;;;;;;5048825;28;20052;-52
2021/10/16 10:18:59;;;;;;;2.90;0.95;;;11.20;99.90;;;;;;5047113;28;20396;-49
2021/10/16 10:21:31;;;;;;;3.20;1.17;;;11.30;99.90;;;;;;5046780;28;20041;-49
2021/10/16 10:23:58;;;;;;;2.65;0.90;;;11.30;99.90;;;;;;5047760;28;20492;-51
2021/10/16 10:26:31;;;;;;;6.60;1.17;;;11.40;99.90;;;;;;5047843;28;20032;-51
2021/10/16 10:29:04;;;;;;;2.72;1.00;;;11.40;99.90;;;;;;5047626;28;20021;-50
2021/10/16 10:31:44;;;;;;;4.95;1.38;;;11.40;99.90;;;;;;5046865;28;20052;-51
2021/10/16 10:34:28;;;;;;;4.20;1.58;;;11.40;99.90;;;;;;5046693;28;20040;-50
2021/10/16 10:37:14;;;;;;;4.15;1.98;;;11.40;99.90;;;;;;5045942;28;20077;-52
2021/10/16 10:39:47;;;;;;;3.47;1.55;;;11.40;99.90;;;;;;5049437;28;20025;-51
2021/10/16 10:42:12;;;;;;;6.35;1.90;;;11.30;99.90;;;;;;5049521;28;20673;-51
2021/10/16 10:44:49;;;;;;;3.22;1.50;;;11.30;99.90;;;;;;5047876;28;20029;-50
2021/10/16 10:47:30;;;;;;;3.58;1.50;;;11.30;99.90;;;;;;5047206;28;20029;-53
2021/10/16 10:49:57;;;;;;;5.10;2.03;;;11.30;99.90;;;;;;5027423;28;20061;-50
2021/10/16 10:52:24;;;;;;;2.90;1.75;;;11.40;99.90;;;;;;5046246;28;20518;-53
2021/10/16 10:55:03;;;;;;;20.92;11.55;;;11.40;99.90;;;;;;5047450;28;20044;-51
2021/10/16 10:57:45;;;;;;;17.75;10.50;;;11.40;99.90;;;;;;5048013;28;20059;-54
2021/10/16 11:00:34;;;;;;;10.45;4.90;;;11.50;99.90;;;;;;5046986;28;20055;-53
2021/10/16 11:03:00;;;;;;;3.72;1.80;;;11.60;99.90;;;;;;5035188;28;20122;-52
2021/10/16 11:05:35;;;;;;;4.03;1.75;;;11.70;99.90;;;;;;5046884;28;20021;-53
2021/10/16 11:08:05;;;;;;;4.30;2.58;;;11.80;99.90;;;;;;5047851;28;20032;-51
2021/10/16 11:10:31;;;;;;;5.60;2.67;;;11.90;99.90;;;;;;5047366;28;20648;-52
2021/10/16 11:12:56;;;;;;;2.60;1.38;;;11.90;99.90;;;;;;5038848;28;20069;-51
2021/10/16 11:15:22;;;;;;;8.20;1.90;;;12.10;99.90;;;;;;5033934;28;20039;-51
2021/10/16 11:17:49;;;;;;;4.38;1.65;;;12.20;99.90;;;;;;5047056;28;20032;-51
2021/10/16 11:20:17;;;;;;;3.30;1.40;;;12.30;99.90;;;;;;5046091;28;20025;-51
2021/10/16 11:22:47;;;;;;;3.53;1.85;;;12.30;99.90;;;;;;5047434;28;20024;-51
2021/10/16 11:25:21;;;;;;;6.05;1.58;;;12.40;99.90;;;;;;5047777;28;20024;-51
2021/10/16 11:28:04;;;;;;;3.15;1.27;;;12.40;99.90;;;;;;5046848;28;20025;-52
2021/10/16 11:30:30;;;;;;;4.30;1.25;;;12.40;99.90;;;;;;5035393;28;20021;-51
2021/10/16 11:33:05;;;;;;;5.10;2.78;;;12.40;99.90;;;;;;5049032;28;20420;-54
2021/10/16 11:35:31;;;;;;;4.90;1.83;;;12.40;99.90;;;;;;5051334;28;20082;-50
2021/10/16 11:37:56;;;;;;;3.92;1.23;;;12.40;99.90;;;;;;5050875;28;20029;-53
2021/10/16 11:40:24;;;;;;;5.13;1.95;;;12.40;99.90;;;;;;5058269;28;20042;-51
2021/10/16 11:42:56;;;;;;;3.85;2.05;;;12.50;99.90;;;;;;5071095;28;20619;-50
2021/10/16 11:45:33;;;;;;;2.20;1.67;;;12.50;99.90;;;;;;5071492;28;20042;-51
2021/10/16 11:48:04;;;;;;;3.05;1.42;;;12.50;99.90;;;;;;5070977;28;20060;-51
2021/10/16 11:50:33;;;;;;;5.72;1.52;;;12.40;99.90;;;;;;5070607;28;20029;-51
2021/10/16 11:53:12;;;;;;;7.07;1.35;;;12.40;99.90;;;;;;5068842;28;20610;-51
2021/10/16 11:55:50;;;;;;;2.90;1.40;;;12.40;99.90;;;;;;5070927;28;20511;-50
2021/10/16 11:58:20;;;;;;;3.75;1.48;;;12.40;99.90;;;;;;5071054;28;20082;-51
2021/10/16 12:00:53;;;;;;;2.83;1.30;;;12.40;99.90;;;;;;5070767;28;20107;-51
2021/10/16 12:03:23;;;;;;;5.80;1.50;;;12.40;99.90;;;;;;5069041;28;20024;-52
2021/10/16 12:05:53;;;;;;;3.03;1.10;;;12.40;99.90;;;;;;5070737;28;20024;-53
2021/10/16 12:08:24;;;;;;;4.05;1.20;;;12.50;99.90;;;;;;5069638;28;20054;-52
2021/10/16 12:10:58;;;;;;;5.57;1.80;;;12.40;99.90;;;;;;5070614;28;20020;-51
2021/10/16 12:13:40;;;;;;;2.60;1.55;;;12.30;99.90;;;;;;5085158;22;20409;-51
2021/10/16 12:16:14;;;;;;;4.82;1.55;;;12.10;99.90;;;;;;5050499;28;20037;-55
2021/10/16 12:18:57;;;;;;;3.83;1.73;;;12.00;99.90;;;;;;5051309;28;20021;-51
2021/10/16 12:21:30;;;;;;;2.25;1.60;;;11.90;99.90;;;;;;5031770;28;20544;-55
2021/10/16 12:23:57;;;;;;;3.90;1.50;;;11.80;99.90;;;;;;5031869;28;20025;-50
2021/10/16 12:26:28;;;;;;;4.13;1.40;;;11.80;99.90;;;;;;5032458;28;20080;-51
2021/10/16 12:28:55;;;;;;;4.80;1.10;;;11.70;99.90;;;;;;5032401;28;20400;-53
2021/10/16 12:31:23;;;;;;;4.78;1.63;;;11.70;99.90;;;;;;5032845;28;20492;-51
2021/10/16 12:33:57;;;;;;;2.70;1.42;;;11.70;99.90;;;;;;5032195;28;20039;-55
2021/10/16 12:36:35;;;;;;;8.35;1.65;;;11.70;99.90;;;;;;5049444;28;20040;-52
2021/10/16 12:39:03;;;;;;;4.75;1.45;;;11.60;99.90;;;;;;5047413;28;20028;-52
2021/10/16 12:41:40;;;;;;;4.68;1.60;;;11.50;99.90;;;;;;5052235;28;20044;-51
2021/10/16 12:44:33;;;;;;;4.35;1.27;;;11.60;99.90;;;;;;5050007;28;20033;-52
2021/10/16 12:47:09;;;;;;;5.75;2.25;;;11.60;99.90;;;;;;5043476;28;20069;-51
2021/10/16 12:49:37;;;;;;;4.60;1.30;;;11.50;99.90;;;;;;5031795;28;20033;-55
2021/10/16 12:52:05;;;;;;;4.20;1.20;;;11.50;99.90;;;;;;5049310;28;20120;-52
2021/10/16 12:54:37;;;;;;;4.32;1.05;;;11.50;99.90;;;;;;5048143;28;20025;-53
2021/10/16 12:57:05;;;;;;;3.47;1.30;;;11.40;99.90;;;;;;5020791;28;20618;-53